QFA478 YMML-YSSY
Flight info
| Callsign | QFA478 |
|---|---|
| Flight time | 1h 7m |
| Altitude | 37000 |
| Route | ML H129 DOSEL Y59 RIVET |
| Aircraft | B738/M-SDE2E3FGHIRWXY/LB1 |
Departure
| Time | 2026-05-04 11:08 |
|---|---|
| Airport | Melbourne Airport (YMML) |
Arrival
| Time | 2026-05-04 12:15 |
|---|---|
| Airport | Sydney Kingsford Smith International Airport (YSSY) |
| Time | Latitude | Longitude | Altitude | Speed | Heading |
|---|---|---|---|---|---|
| 2026-05-04 10:29 | -37.66820 | 144.85162 | 409 ft | 0 kts | 102° |
| 2026-05-04 10:42 | -37.66820 | 144.85159 | 409 ft | 2 kts | 102° |
| 2026-05-04 10:42 | -37.66816 | 144.85138 | 409 ft | 2 kts | 102° |
| 2026-05-04 10:42 | -37.66813 | 144.85118 | 409 ft | 2 kts | 102° |
| 2026-05-04 10:43 | -37.66809 | 144.85098 | 409 ft | 2 kts | 102° |
| 2026-05-04 10:44 | -37.66800 | 144.85036 | 406 ft | 0 kts | 96° |
| 2026-05-04 10:51 | -37.66538 | 144.85012 | 411 ft | 0 kts | 292° |
| 2026-05-04 10:52 | -37.66534 | 144.84975 | 412 ft | 11 kts | 265° |
| 2026-05-04 10:52 | -37.66547 | 144.84843 | 410 ft | 6 kts | 267° |
| 2026-05-04 10:52 | -37.66594 | 144.84798 | 409 ft | 16 kts | 210° |
| 2026-05-04 10:54 | -37.67108 | 144.84045 | 387 ft | 21 kts | 172° |
| 2026-05-04 10:54 | -37.67257 | 144.84070 | 382 ft | 22 kts | 172° |
| 2026-05-04 10:56 | -37.67629 | 144.84140 | 369 ft | 0 kts | 172° |
| 2026-05-04 10:59 | -37.67638 | 144.84141 | 371 ft | 5 kts | 173° |
| 2026-05-04 11:00 | -37.67711 | 144.84155 | 369 ft | 13 kts | 171° |
| 2026-05-04 11:01 | -37.67809 | 144.84171 | 368 ft | 0 kts | 175° |
| 2026-05-04 11:02 | -37.67812 | 144.84172 | 367 ft | 2 kts | 175° |
| 2026-05-04 11:02 | -37.67841 | 144.84167 | 365 ft | 0 kts | 199° |
| 2026-05-04 11:05 | -37.67864 | 144.84145 | 365 ft | 3 kts | 234° |
| 2026-05-04 11:06 | -37.67871 | 144.84120 | 365 ft | 3 kts | 253° |
| 2026-05-04 11:06 | -37.67877 | 144.84085 | 361 ft | 6 kts | 258° |
| 2026-05-04 11:06 | -37.67883 | 144.84018 | 363 ft | 7 kts | 268° |
| 2026-05-04 11:06 | -37.67880 | 144.83985 | 362 ft | 3 kts | 292° |
| 2026-05-04 11:08 | -37.64801 | 144.83363 | 1801 ft | 157 kts | 349° |
| 2026-05-04 11:10 | -37.54951 | 144.84738 | 5309 ft | 261 kts | 21° |
| 2026-05-04 11:12 | -37.43366 | 144.92226 | 10566 ft | 305 kts | 40° |
| 2026-05-04 11:12 | -37.41995 | 144.94423 | 10780 ft | 332 kts | 47° |
| 2026-05-04 11:12 | -37.40627 | 144.96842 | 11223 ft | 345 kts | 48° |
| 2026-05-04 11:12 | -37.39259 | 144.99312 | 11897 ft | 349 kts | 49° |
| 2026-05-04 11:13 | -37.37864 | 145.01830 | 12639 ft | 352 kts | 49° |
| 2026-05-04 11:13 | -37.36455 | 145.04362 | 13390 ft | 355 kts | 48° |
| 2026-05-04 11:13 | -37.35025 | 145.06912 | 14118 ft | 358 kts | 48° |
| 2026-05-04 11:13 | -37.33579 | 145.09478 | 14734 ft | 363 kts | 47° |
| 2026-05-04 11:14 | -37.32108 | 145.12077 | 15334 ft | 367 kts | 47° |
| 2026-05-04 11:14 | -37.30623 | 145.14695 | 15937 ft | 371 kts | 47° |
| 2026-05-04 11:14 | -37.29109 | 145.17361 | 16555 ft | 375 kts | 47° |
| 2026-05-04 11:16 | -37.18196 | 145.36531 | 20746 ft | 390 kts | 45° |
| 2026-05-04 11:16 | -37.16613 | 145.39297 | 21316 ft | 391 kts | 45° |
| 2026-05-04 11:16 | -37.15020 | 145.42079 | 21871 ft | 393 kts | 45° |
| 2026-05-04 11:17 | -37.13423 | 145.44862 | 22420 ft | 394 kts | 45° |
| 2026-05-04 11:17 | -37.11822 | 145.47651 | 22958 ft | 395 kts | 45° |
| 2026-05-04 11:19 | -37.00405 | 145.67490 | 25674 ft | 410 kts | 46° |
| 2026-05-04 11:19 | -36.98727 | 145.70397 | 26045 ft | 412 kts | 46° |
| 2026-05-04 11:19 | -36.97047 | 145.73308 | 26404 ft | 415 kts | 46° |
| 2026-05-04 11:19 | -36.95352 | 145.76238 | 26708 ft | 418 kts | 46° |
| 2026-05-04 11:20 | -36.93644 | 145.79189 | 27030 ft | 420 kts | 46° |
| 2026-05-04 11:20 | -36.91924 | 145.82158 | 27326 ft | 422 kts | 46° |
| 2026-05-04 11:20 | -36.90199 | 145.85137 | 27677 ft | 424 kts | 46° |
| 2026-05-04 11:20 | -36.88463 | 145.88130 | 28000 ft | 426 kts | 46° |
| 2026-05-04 11:22 | -36.76068 | 146.09418 | 30035 ft | 440 kts | 45° |
| 2026-05-04 11:22 | -36.74267 | 146.12503 | 30357 ft | 440 kts | 45° |
| 2026-05-04 11:23 | -36.72464 | 146.15588 | 30624 ft | 441 kts | 44° |
| 2026-05-04 11:23 | -36.70651 | 146.18678 | 30836 ft | 443 kts | 44° |
| 2026-05-04 11:24 | -36.59704 | 146.37327 | 32341 ft | 448 kts | 44° |
| 2026-05-04 11:25 | -36.57857 | 146.40461 | 32550 ft | 449 kts | 44° |
| 2026-05-04 11:25 | -36.56012 | 146.43590 | 32818 ft | 449 kts | 44° |
| 2026-05-04 11:25 | -36.54163 | 146.46725 | 33117 ft | 449 kts | 44° |
| 2026-05-04 11:26 | -36.50456 | 146.52996 | 33536 ft | 451 kts | 43° |
| 2026-05-04 11:27 | -36.37372 | 146.75038 | 34866 ft | 458 kts | 44° |
| 2026-05-04 11:28 | -36.35475 | 146.78223 | 35013 ft | 459 kts | 44° |
| 2026-05-04 11:28 | -36.33567 | 146.81404 | 35195 ft | 459 kts | 44° |
| 2026-05-04 11:28 | -36.31665 | 146.84581 | 35405 ft | 460 kts | 44° |
| 2026-05-04 11:28 | -36.29760 | 146.87784 | 35544 ft | 461 kts | 44° |
| 2026-05-04 11:29 | -36.27853 | 146.90984 | 35671 ft | 463 kts | 44° |
| 2026-05-04 11:29 | -36.25935 | 146.94197 | 35839 ft | 464 kts | 44° |
| 2026-05-04 11:29 | -36.24037 | 146.97368 | 36033 ft | 464 kts | 44° |
| 2026-05-04 11:29 | -36.22113 | 147.00579 | 36186 ft | 465 kts | 44° |
| 2026-05-04 11:31 | -36.08525 | 147.23155 | 37076 ft | 470 kts | 45° |
| 2026-05-04 11:33 | -35.94751 | 147.45909 | 37081 ft | 475 kts | 44° |
| 2026-05-04 11:33 | -35.90788 | 147.52429 | 37085 ft | 475 kts | 44° |
| 2026-05-04 11:34 | -35.86825 | 147.58939 | 37098 ft | 475 kts | 44° |
| 2026-05-04 11:34 | -35.82873 | 147.65415 | 37097 ft | 476 kts | 44° |
| 2026-05-04 11:35 | -35.78884 | 147.71930 | 37099 ft | 476 kts | 44° |
| 2026-05-04 11:35 | -35.74894 | 147.78438 | 37099 ft | 477 kts | 44° |
| 2026-05-04 11:36 | -35.70897 | 147.84948 | 37098 ft | 477 kts | 44° |
| 2026-05-04 11:36 | -35.66891 | 147.91461 | 37109 ft | 477 kts | 44° |
| 2026-05-04 11:37 | -35.62911 | 147.97919 | 37111 ft | 478 kts | 44° |
| 2026-05-04 11:37 | -35.58896 | 148.04424 | 37103 ft | 479 kts | 44° |
| 2026-05-04 11:38 | -35.54868 | 148.10936 | 37109 ft | 479 kts | 44° |
| 2026-05-04 11:38 | -35.50821 | 148.17466 | 37107 ft | 480 kts | 44° |
| 2026-05-04 11:39 | -35.46801 | 148.23944 | 37101 ft | 481 kts | 44° |
| 2026-05-04 11:41 | -35.32510 | 148.46791 | 37121 ft | 485 kts | 44° |
| 2026-05-04 11:41 | -35.29099 | 148.52237 | 37118 ft | 485 kts | 44° |
| 2026-05-04 11:42 | -35.24996 | 148.58800 | 37118 ft | 486 kts | 44° |
| 2026-05-04 11:42 | -35.20882 | 148.65347 | 37112 ft | 486 kts | 44° |
| 2026-05-04 11:43 | -35.16089 | 148.72943 | 37114 ft | 485 kts | 44° |
| 2026-05-04 11:43 | -35.12637 | 148.78405 | 37113 ft | 485 kts | 44° |
| 2026-05-04 11:44 | -35.08597 | 148.84812 | 37088 ft | 461 kts | 44° |
| 2026-05-04 11:44 | -35.06698 | 148.87825 | 37092 ft | 448 kts | 43° |
| 2026-05-04 11:44 | -35.04798 | 148.90824 | 37081 ft | 446 kts | 43° |
| 2026-05-04 11:44 | -35.02894 | 148.93810 | 36611 ft | 448 kts | 43° |
| 2026-05-04 11:45 | -35.00966 | 148.96826 | 35836 ft | 454 kts | 43° |
| 2026-05-04 11:45 | -34.99007 | 148.99888 | 35024 ft | 462 kts | 43° |
| 2026-05-04 11:45 | -34.97020 | 149.02997 | 34224 ft | 466 kts | 43° |
| 2026-05-04 11:45 | -34.95039 | 149.06112 | 33518 ft | 464 kts | 42° |
| 2026-05-04 11:46 | -34.93077 | 149.09202 | 32828 ft | 458 kts | 43° |
| 2026-05-04 11:46 | -34.91142 | 149.12250 | 32266 ft | 450 kts | 42° |
| 2026-05-04 11:46 | -34.89240 | 149.15241 | 31698 ft | 443 kts | 42° |
| 2026-05-04 11:46 | -34.87391 | 149.18136 | 31122 ft | 437 kts | 42° |
| 2026-05-04 11:47 | -34.85540 | 149.21030 | 30597 ft | 429 kts | 42° |
| 2026-05-04 11:47 | -34.83716 | 149.23879 | 30188 ft | 424 kts | 42° |
| 2026-05-04 11:47 | -34.81911 | 149.26689 | 29710 ft | 421 kts | 42° |
| 2026-05-04 11:47 | -34.80112 | 149.29489 | 29295 ft | 417 kts | 42° |
| 2026-05-04 11:48 | -34.78339 | 149.32252 | 28890 ft | 413 kts | 42° |
| 2026-05-04 11:48 | -34.76581 | 149.34989 | 28480 ft | 409 kts | 42° |
| 2026-05-04 11:48 | -34.74836 | 149.37704 | 28090 ft | 405 kts | 42° |
| 2026-05-04 11:48 | -34.73248 | 149.40543 | 27726 ft | 411 kts | 51° |
| 2026-05-04 11:49 | -34.71909 | 149.43557 | 27443 ft | 408 kts | 53° |
| 2026-05-04 11:49 | -34.70601 | 149.46611 | 27188 ft | 409 kts | 53° |
| 2026-05-04 11:49 | -34.69284 | 149.49694 | 26950 ft | 413 kts | 53° |
| 2026-05-04 11:49 | -34.67954 | 149.52795 | 26698 ft | 415 kts | 53° |
| 2026-05-04 11:50 | -34.66618 | 149.55892 | 26448 ft | 413 kts | 53° |
| 2026-05-04 11:50 | -34.65284 | 149.58969 | 26148 ft | 412 kts | 53° |
| 2026-05-04 11:50 | -34.63918 | 149.62087 | 25930 ft | 423 kts | 53° |
| 2026-05-04 11:50 | -34.62521 | 149.65267 | 25684 ft | 428 kts | 53° |
| 2026-05-04 11:51 | -34.61123 | 149.68458 | 25438 ft | 427 kts | 53° |
| 2026-05-04 11:51 | -34.59738 | 149.71625 | 25180 ft | 423 kts | 53° |
| 2026-05-04 11:51 | -34.58366 | 149.74760 | 24951 ft | 420 kts | 53° |
| 2026-05-04 11:51 | -34.56995 | 149.77884 | 24714 ft | 418 kts | 53° |
| 2026-05-04 11:52 | -34.55634 | 149.80979 | 24472 ft | 415 kts | 53° |
| 2026-05-04 11:52 | -34.54294 | 149.84022 | 24108 ft | 412 kts | 53° |
| 2026-05-04 11:52 | -34.52950 | 149.87072 | 23702 ft | 409 kts | 53° |
| 2026-05-04 11:52 | -34.51613 | 149.90102 | 23206 ft | 406 kts | 53° |
| 2026-05-04 11:53 | -34.50289 | 149.93102 | 22756 ft | 403 kts | 53° |
| 2026-05-04 11:53 | -34.48970 | 149.96085 | 22302 ft | 400 kts | 53° |
| 2026-05-04 11:53 | -34.47658 | 149.99051 | 21870 ft | 397 kts | 53° |
| 2026-05-04 11:53 | -34.46356 | 150.01993 | 21426 ft | 394 kts | 53° |
| 2026-05-04 11:55 | -34.37499 | 150.21933 | 18519 ft | 376 kts | 54° |
| 2026-05-04 11:55 | -34.36260 | 150.24713 | 18044 ft | 375 kts | 54° |
| 2026-05-04 11:56 | -34.35028 | 150.27475 | 17594 ft | 372 kts | 54° |
| 2026-05-04 11:56 | -34.33802 | 150.30224 | 17165 ft | 369 kts | 54° |
| 2026-05-04 11:56 | -34.32588 | 150.32942 | 16775 ft | 366 kts | 54° |
| 2026-05-04 11:56 | -34.31377 | 150.35652 | 16346 ft | 364 kts | 54° |
| 2026-05-04 11:57 | -34.30177 | 150.38336 | 15946 ft | 362 kts | 54° |
| 2026-05-04 11:57 | -34.28984 | 150.41002 | 15541 ft | 359 kts | 54° |
| 2026-05-04 11:57 | -34.27815 | 150.43612 | 15143 ft | 357 kts | 55° |
| 2026-05-04 11:57 | -34.26640 | 150.46239 | 14746 ft | 355 kts | 55° |
| 2026-05-04 11:58 | -34.25467 | 150.48862 | 14349 ft | 353 kts | 55° |
| 2026-05-04 11:58 | -34.24306 | 150.51456 | 13968 ft | 351 kts | 55° |
| 2026-05-04 11:58 | -34.23151 | 150.54038 | 13525 ft | 349 kts | 55° |
| 2026-05-04 11:58 | -34.22002 | 150.56605 | 13119 ft | 346 kts | 55° |
| 2026-05-04 11:59 | -34.20860 | 150.59155 | 12701 ft | 343 kts | 56° |
| 2026-05-04 11:59 | -34.19730 | 150.61674 | 12330 ft | 340 kts | 56° |
| 2026-05-04 11:59 | -34.18606 | 150.64177 | 11941 ft | 338 kts | 56° |
| 2026-05-04 11:59 | -34.17491 | 150.66658 | 11569 ft | 335 kts | 56° |
| 2026-05-04 12:00 | -34.16403 | 150.69080 | 11203 ft | 331 kts | 56° |
| 2026-05-04 12:00 | -34.15309 | 150.71509 | 10837 ft | 329 kts | 56° |
| 2026-05-04 12:00 | -34.14218 | 150.73927 | 10469 ft | 327 kts | 56° |
| 2026-05-04 12:00 | -34.13131 | 150.76341 | 10085 ft | 326 kts | 56° |
| 2026-05-04 12:01 | -34.12046 | 150.78746 | 9612 ft | 327 kts | 56° |
| 2026-05-04 12:01 | -34.10963 | 150.81145 | 9225 ft | 325 kts | 57° |
| 2026-05-04 12:02 | -34.04787 | 150.94859 | 7592 ft | 298 kts | 57° |
| 2026-05-04 12:03 | -34.03806 | 150.97047 | 7348 ft | 295 kts | 59° |
| 2026-05-04 12:03 | -34.03285 | 150.99446 | 7078 ft | 301 kts | 86° |
| 2026-05-04 12:03 | -34.03708 | 151.01909 | 6842 ft | 304 kts | 115° |
| 2026-05-04 12:03 | -34.04927 | 151.03962 | 6621 ft | 302 kts | 134° |
| 2026-05-04 12:04 | -34.06386 | 151.05797 | 6357 ft | 303 kts | 135° |
| 2026-05-04 12:04 | -34.07978 | 151.07446 | 6055 ft | 302 kts | 153° |
| 2026-05-04 12:04 | -34.09909 | 151.08300 | 5832 ft | 292 kts | 172° |
| 2026-05-04 12:04 | -34.11890 | 151.08791 | 5584 ft | 290 kts | 172° |
| 2026-05-04 12:05 | -34.13856 | 151.09271 | 5331 ft | 287 kts | 172° |
| 2026-05-04 12:05 | -34.15803 | 151.09760 | 5083 ft | 284 kts | 172° |
| 2026-05-04 12:05 | -34.17712 | 151.10248 | 4719 ft | 286 kts | 172° |
| 2026-05-04 12:05 | -34.19680 | 151.10752 | 4213 ft | 292 kts | 172° |
| 2026-05-04 12:06 | -34.21690 | 151.11199 | 3861 ft | 291 kts | 173° |
| 2026-05-04 12:06 | -34.23664 | 151.11601 | 3686 ft | 284 kts | 174° |
| 2026-05-04 12:06 | -34.25585 | 151.11980 | 3555 ft | 276 kts | 174° |
| 2026-05-04 12:06 | -34.27444 | 151.12398 | 3420 ft | 270 kts | 164° |
| 2026-05-04 12:07 | -34.29028 | 151.13564 | 3272 ft | 267 kts | 134° |
| 2026-05-04 12:07 | -34.29943 | 151.15451 | 3131 ft | 259 kts | 103° |
| 2026-05-04 12:07 | -34.29978 | 151.17546 | 3044 ft | 243 kts | 71° |
| 2026-05-04 12:07 | -34.29217 | 151.19231 | 3015 ft | 220 kts | 46° |
| 2026-05-04 12:08 | -34.28215 | 151.20571 | 2988 ft | 212 kts | 37° |
| 2026-05-04 12:08 | -34.26961 | 151.21386 | 3002 ft | 203 kts | 13° |
| 2026-05-04 12:08 | -34.25621 | 151.21901 | 2998 ft | 206 kts | 13° |
| 2026-05-04 12:08 | -34.24261 | 151.22408 | 2994 ft | 204 kts | 13° |
| 2026-05-04 12:09 | -34.22903 | 151.22907 | 2993 ft | 203 kts | 13° |
| 2026-05-04 12:09 | -34.21548 | 151.23407 | 2997 ft | 203 kts | 13° |
| 2026-05-04 12:09 | -34.20192 | 151.23867 | 2984 ft | 201 kts | 3° |
| 2026-05-04 12:09 | -34.18830 | 151.23763 | 3000 ft | 195 kts | 348° |
| 2026-05-04 12:10 | -34.17493 | 151.23501 | 2997 ft | 195 kts | 347° |
| 2026-05-04 12:10 | -34.16162 | 151.23193 | 2992 ft | 195 kts | 345° |
| 2026-05-04 12:10 | -34.14830 | 151.22858 | 2989 ft | 196 kts | 345° |
| 2026-05-04 12:10 | -34.13495 | 151.22513 | 2999 ft | 196 kts | 345° |
| 2026-05-04 12:11 | -34.12186 | 151.22173 | 2977 ft | 186 kts | 344° |
| 2026-05-04 12:11 | -34.10965 | 151.21856 | 2867 ft | 173 kts | 343° |
| 2026-05-04 12:11 | -34.09825 | 151.21558 | 2692 ft | 165 kts | 345° |
| 2026-05-04 12:11 | -34.08732 | 151.21273 | 2490 ft | 158 kts | 345° |
| 2026-05-04 12:12 | -34.07689 | 151.21001 | 2317 ft | 148 kts | 345° |
| 2026-05-04 12:12 | -34.06682 | 151.20738 | 2092 ft | 148 kts | 345° |
| 2026-05-04 12:12 | -34.05680 | 151.20476 | 1905 ft | 147 kts | 345° |
| 2026-05-04 12:12 | -34.04681 | 151.20216 | 1708 ft | 146 kts | 346° |
| 2026-05-04 12:13 | -34.03695 | 151.19959 | 1505 ft | 144 kts | 345° |
| 2026-05-04 12:14 | -33.96422 | 151.18059 | 83 ft | 156 kts | 346° |
| 2026-05-04 12:15 | -33.95437 | 151.17803 | 22 ft | 126 kts | 349° |
| 2026-05-04 12:15 | -33.94730 | 151.17621 | 22 ft | 82 kts | 347° |
| 2026-05-04 12:15 | -33.94300 | 151.17513 | 29 ft | 46 kts | 347° |
| 2026-05-04 12:15 | -33.94027 | 151.17443 | 18 ft | 36 kts | 346° |
| 2026-05-04 12:16 | -33.93921 | 151.17460 | 19 ft | 13 kts | 60° |
| 2026-05-04 12:16 | -33.93895 | 151.17555 | 18 ft | 7 kts | 76° |
| 2026-05-04 12:16 | -33.93894 | 151.17558 | 18 ft | 1 kts | 76° |
| 2026-05-04 12:16 | -33.93879 | 151.17583 | 19 ft | 6 kts | 35° |
| 2026-05-04 12:17 | -33.93830 | 151.17590 | 19 ft | 10 kts | 354° |
| 2026-05-04 12:17 | -33.93749 | 151.17570 | 17 ft | 14 kts | 348° |
| 2026-05-04 12:17 | -33.93657 | 151.17545 | 16 ft | 13 kts | 347° |
| 2026-05-04 12:17 | -33.93557 | 151.17518 | 17 ft | 16 kts | 348° |
| 2026-05-04 12:18 | -33.93453 | 151.17500 | 20 ft | 14 kts | 1° |
| 2026-05-04 12:18 | -33.93352 | 151.17494 | 21 ft | 16 kts | 350° |
| 2026-05-04 12:18 | -33.93236 | 151.17466 | 20 ft | 18 kts | 348° |
| 2026-05-04 12:18 | -33.93152 | 151.17443 | 21 ft | 9 kts | 348° |
| 2026-05-04 12:19 | -33.93088 | 151.17428 | 22 ft | 10 kts | 349° |
| 2026-05-04 12:19 | -33.93033 | 151.17415 | 23 ft | 0 kts | 350° |
| 2026-05-04 12:19 | -33.93017 | 151.17413 | 24 ft | 1 kts | 356° |
| 2026-05-04 12:20 | -33.93002 | 151.17419 | 26 ft | 6 kts | 28° |
| 2026-05-04 12:20 | -33.92983 | 151.17483 | 29 ft | 10 kts | 95° |
| 2026-05-04 12:20 | -33.93005 | 151.17591 | 29 ft | 18 kts | 102° |
| 2026-05-04 12:20 | -33.93047 | 151.17736 | 28 ft | 15 kts | 113° |
| 2026-05-04 12:21 | -33.93092 | 151.17765 | 30 ft | 6 kts | 191° |
| 2026-05-04 12:21 | -33.93113 | 151.17760 | 30 ft | 0 kts | 191° |
| 2026-05-04 12:21 | -33.93121 | 151.17757 | 30 ft | 1 kts | 194° |
| 2026-05-04 12:21 | -33.93132 | 151.17755 | 30 ft | 0 kts | 190° |